Map

Track Data

SID SEASON NUMBER BASIN SUBBASIN NAME ISO_TIME NATURE LAT LON WMO_WIND WMO_PRES WMO_AGENCY TRACK_TYPE DIST2LAND LANDFALL IFLAG USA_AGENCY USA_ATCF_ID USA_LAT USA_LON USA_RECORD USA_STATUS USA_WIND USA_PRES USA_SSHS USA_R34_NE USA_R34_SE USA_R34_SW USA_R34_NW USA_R50_NE USA_R50_SE USA_R50_SW USA_R50_NW USA_R64_NE USA_R64_SE USA_R64_SW USA_R64_NW USA_POCI USA_ROCI USA_RMW USA_EYE TOKYO_LAT TOKYO_LON TOKYO_GRADE TOKYO_WIND TOKYO_PRES TOKYO_R50_DIR TOKYO_R50_LONG TOKYO_R50_SHORT TOKYO_R30_DIR TOKYO_R30_LONG TOKYO_R30_SHORT TOKYO_LAND CMA_LAT CMA_LON CMA_CAT CMA_WIND CMA_PRES HKO_LAT HKO_LON HKO_CAT HKO_WIND HKO_PRES NEWDELHI_LAT NEWDELHI_LON NEWDELHI_GRADE NEWDELHI_WIND NEWDELHI_PRES NEWDELHI_CI NEWDELHI_DP NEWDELHI_POCI REUNION_LAT REUNION_LON REUNION_TYPE REUNION_WIND REUNION_PRES REUNION_TNUM REUNION_CI REUNION_RMW REUNION_R34_NE REUNION_R34_SE REUNION_R34_SW REUNION_R34_NW REUNION_R50_NE REUNION_R50_SE REUNION_R50_SW REUNION_R50_NW REUNION_R64_NE REUNION_R64_SE REUNION_R64_SW REUNION_R64_NW BOM_LAT BOM_LON BOM_TYPE BOM_WIND BOM_PRES BOM_TNUM BOM_CI BOM_RMW BOM_R34_NE BOM_R34_SE BOM_R34_SW BOM_R34_NW BOM_R50_NE BOM_R50_SE BOM_R50_SW BOM_R50_NW BOM_R64_NE BOM_R64_SE BOM_R64_SW BOM_R64_NW BOM_ROCI BOM_POCI BOM_EYE BOM_POS_METHOD BOM_PRES_METHOD NADI_LAT NADI_LON NADI_CAT NADI_WIND NADI_PRES WELLINGTON_LAT WELLINGTON_LON WELLINGTON_WIND WELLINGTON_PRES DS824_LAT DS824_LON DS824_STAGE DS824_WIND DS824_PRES TD9636_LAT TD9636_LON TD9636_STAGE TD9636_WIND TD9636_PRES TD9635_LAT TD9635_LON TD9635_WIND TD9635_PRES TD9635_ROCI NEUMANN_LAT NEUMANN_LON NEUMANN_CLASS NEUMANN_WIND NEUMANN_PRES MLC_LAT MLC_LON MLC_CLASS MLC_WIND MLC_PRES USA_GUST BOM_GUST BOM_GUST_PER REUNION_GUST REUNION_GUST_PER USA_SEAHGT USA_SEARAD_NE USA_SEARAD_SE USA_SEARAD_SW USA_SEARAD_NW STORM_SPEED STORM_DIR
1906269N15128 1906 41 WP MM NOT_NAMED 1906-09-25 16:00:00 NR 14.6000 127.500 main 342 322 __________O___ -1 14.6000 127.500 7 7 283
1906269N15128 1906 41 WP MM NOT_NAMED 1906-09-25 18:00:00 NR 14.6544 127.266 main 325 283 __________P___ -1 14.6544 127.266 7 7 283
1906269N15128 1906 41 WP MM NOT_NAMED 1906-09-25 21:00:00 NR 14.7341 126.902 main 283 247 __________P___ -1 14.7341 126.902 7 8 282
1906269N15128 1906 41 WP MM NOT_NAMED 1906-09-26 00:00:00 NR 14.8097 126.508 main 247 214 __________P___ -1 14.8097 126.508 7 8 280
1906269N15128 1906 41 WP MM NOT_NAMED 1906-09-26 03:00:00 NR 14.8788 126.063 main 214 196 __________P___ -1 14.8788 126.063 7 9 279
1906269N15128 1906 41 WP MM NOT_NAMED 1906-09-26 04:00:00 NR 14.9000 125.900 main 196 171 __________O___ -1 14.9000 125.900 7 10 277
1906269N15128 1906 41 WP MM NOT_NAMED 1906-09-26 06:00:00 NR 14.9392 125.551 main 171 134 __________P___ -1 14.9392 125.551 7 11 276
1906269N15128 1906 41 WP MM NOT_NAMED 1906-09-26 09:00:00 NR 14.9916 124.984 main 134 112 __________P___ -1 14.9916 124.984 7 11 275
1906269N15128 1906 41 WP MM NOT_NAMED 1906-09-26 12:00:00 NR 15.0390 124.389 main 112 111 __________P___ -1 15.0390 124.389 7 12 275
1906269N15128 1906 41 WP MM NOT_NAMED 1906-09-26 15:00:00 NR 15.0846 123.794 main 127 125 __________P___ -1 15.0846 123.794 7 11 275
1906269N15128 1906 41 WP MM NOT_NAMED 1906-09-26 16:00:00 NR 15.1000 123.600 main 125 105 __________O___ -1 15.1000 123.600 7 11 272
1906269N15128 1906 41 WP MM NOT_NAMED 1906-09-26 18:00:00 NR 15.0988 123.243 main 105 100 __________P___ -1 15.0988 123.243 7 10 270
1906269N15128 1906 41 WP MM NOT_NAMED 1906-09-26 21:00:00 NR 15.0965 122.721 main 100 69 __________P___ -1 15.0965 122.721 7 10 272
1906269N15128 1906 41 WP MM NOT_NAMED 1906-09-27 00:00:00 NR 15.1298 122.203 main 69 31 __________P___ -1 15.1298 122.203 7 10 278
1906269N15128 1906 41 WP MM NOT_NAMED 1906-09-27 03:00:00 NR 15.2395 121.679 main 31 10 __________P___ -1 15.2395 121.679 7 11 284
1906269N15128 1906 41 WP MM NOT_NAMED 1906-09-27 04:00:00 NR 15.3000 121.500 main 10 0 __________O___ -1 15.3000 121.500 3 12 293
1906269N15128 1906 41 WP MM NOT_NAMED 1906-09-27 06:00:00 NR 15.4760 121.103 main 0 0 __________P___ -1 15.4760 121.103 3 13 298
1906269N15128 1906 41 WP MM NOT_NAMED 1906-09-27 09:00:00 NR 15.8221 120.493 main 0 0 __________P___ -1 15.8221 120.493 3 14 303
1906269N15128 1906 41 WP MM NOT_NAMED 1906-09-27 12:00:00 NR 16.2300 119.900 main 0 0 __________P___ -1 16.2300 119.900 3 14 308
1906269N15128 1906 41 WP MM NOT_NAMED 1906-09-27 15:00:00 NR 16.6592 119.361 main 61 69 __________P___ -1 16.6592 119.361 3 13 310
1906269N15128 1906 41 WP MM NOT_NAMED 1906-09-27 16:00:00 NR 16.8000 119.200 main 84 84 __________O___ -1 16.8000 119.200 4 11 313
1906269N15128 1906 41 WP MM NOT_NAMED 1906-09-27 18:00:00 NR 17.0386 118.941 main 123 131 __________P___ -1 17.0386 118.941 4 10 317
1906269N15128 1906 41 WP MM NOT_NAMED 1906-09-27 21:00:00 NR 17.3969 118.616 main 177 177 __________P___ -1 17.3969 118.616 4 9 321
1906269N15128 1906 41 WP MM NOT_NAMED 1906-09-28 00:00:00 NR 17.7670 118.324 main 213 213 __________P___ -1 17.7670 118.324 4 10 323
1906269N15128 1906 41 WP MM NOT_NAMED 1906-09-28 03:00:00 NR 18.1612 118.015 main 252 252 __________P___ -1 18.1612 118.015 4 10 323
1906269N15128 1906 41 WP MM NOT_NAMED 1906-09-28 04:00:00 NR 18.3000 117.900 main 265 265 __________O___ -1 18.3000 117.900 4 12 321
1906269N15128 1906 41 WP MM NOT_NAMED 1906-09-28 06:00:00 NR 18.6172 117.631 main 306 306 __________P___ -1 18.6172 117.631 4 13 321
1906269N15128 1906 41 WP MM NOT_NAMED 1906-09-28 09:00:00 NR 19.1189 117.190 main 365 358 __________P___ -1 19.1189 117.190 4 13 319
1906269N15128 1906 41 WP MM NOT_NAMED 1906-09-28 12:00:00 NR 19.6155 116.706 main 358 293 __________P___ -1 19.6155 116.706 4 13 315
1906269N15128 1906 41 WP MM NOT_NAMED 1906-09-28 15:00:00 NR 20.0667 116.183 main 293 280 __________P___ -1 20.0667 116.183 4 13 311
1906269N15128 1906 41 WP MM NOT_NAMED 1906-09-28 16:00:00 NR 20.2000 116.000 main 280 245 __________O___ -1 20.2000 116.000 4 13 305
1906269N15128 1906 41 WP MM NOT_NAMED 1906-09-28 18:00:00 NR 20.4352 115.624 main 245 193 __________P___ -1 20.4352 115.624 4 13 300
1906269N15128 1906 41 WP MM NOT_NAMED 1906-09-28 21:00:00 NR 20.7209 115.036 main 193 156 __________P___ -1 20.7209 115.036 4 12 295
1906269N15128 1906 41 WP MM NOT_NAMED 1906-09-29 00:00:00 NR 20.9476 114.428 main 156 121 __________P___ -1 20.9476 114.428 4 12 290
1906269N15128 1906 41 WP MM NOT_NAMED 1906-09-29 03:00:00 NR 21.1396 113.808 main 121 99 __________P___ -1 21.1396 113.808 4 12 288
1906269N15128 1906 41 WP MM NOT_NAMED 1906-09-29 04:00:00 NR 21.2000 113.600 main 99 __________O___ -1 21.2000 113.600 4 12 287

Digital Typhoon Data and Search

About IBTrACS Database

This database is a web-friendly format of International Best Track Archive for Climate Stewardship (IBTrACS), a global best track data archive curated by NOAA dating back to 1842.

Updated: 2021-10-21